createdAt,value
2022-11-22T00:02:17.767Z,97236.77
2022-11-22T00:09:00.414Z,97237.21
2022-11-22T00:11:32.733Z,97240.71
2022-11-22T00:14:05.268Z,97238.04
2022-11-22T00:16:38.526Z,97231.30
2022-11-22T00:19:11.832Z,97230.30
2022-11-22T00:21:50.361Z,97228.17
2022-11-22T00:24:22.945Z,97228.55
2022-11-22T00:31:46.449Z,97248.14
2022-11-22T00:34:18.717Z,97254.67
2022-11-22T00:36:51.272Z,97256.72
2022-11-22T00:39:32.644Z,97258.30
2022-11-22T00:42:57.905Z,97260.17
2022-11-22T00:45:30.210Z,97267.74
2022-11-22T00:48:02.343Z,97266.27
2022-11-22T00:51:28.972Z,97268.69
2022-11-22T00:59:16.037Z,97278.77
2022-11-22T01:01:48.265Z,97287.21
2022-11-22T01:04:27.384Z,97283.66
2022-11-22T01:07:00.139Z,97278.39
2022-11-22T01:14:26.638Z,97279.04
2022-11-22T01:21:31.436Z,97269.52
2022-11-22T01:24:03.960Z,97261.91
2022-11-22T01:26:42.595Z,97265.44
2022-11-22T01:29:15.445Z,97269.05
2022-11-22T01:31:54.484Z,97269.70
2022-11-22T01:34:27.207Z,97265.70
2022-11-22T01:37:48.093Z,97263.75
2022-11-22T01:45:48.143Z,97247.52
2022-11-22T01:52:23.589Z,97241.54
2022-11-22T01:55:45.768Z,97237.49
2022-11-22T02:07:19.138Z,97242.45
2022-11-22T02:10:12.775Z,97239.73
2022-11-22T02:14:38.892Z,97230.18
2022-11-22T02:17:18.716Z,97228.39
2022-11-22T02:24:18.248Z,97219.96
2022-11-22T02:26:50.635Z,97215.21
2022-11-22T02:29:49.979Z,97214.67
2022-11-22T02:32:22.527Z,97211.27
2022-11-22T02:34:55.036Z,97214.48
2022-11-22T02:41:29.572Z,97219.39
2022-11-22T02:44:35.929Z,97220.03
2022-11-22T02:51:35.141Z,97217.23
2022-11-22T02:55:13.245Z,97215.48
2022-11-22T02:57:45.556Z,97215.34
2022-11-22T03:00:27.489Z,97214.55
2022-11-22T03:03:22.760Z,97210.25
2022-11-22T03:10:53.132Z,97190.06
2022-11-22T03:22:17.080Z,97188.45
2022-11-22T03:25:40.479Z,97182.43
2022-11-22T03:37:10.016Z,97179.27
2022-11-22T03:39:42.508Z,97180.66
2022-11-22T03:42:42.327Z,97181.89
2022-11-22T03:46:48.044Z,97189.46
2022-11-22T03:53:36.548Z,97187.27
2022-11-22T03:56:09.366Z,97189.52
2022-11-22T03:58:47.716Z,97186.73
2022-11-22T04:10:53.302Z,97200.05
2022-11-22T04:21:42.692Z,97198.13
2022-11-22T04:36:27.994Z,97181.83
2022-11-22T04:39:06.769Z,97181.38
2022-11-22T04:41:39.330Z,97178.23
2022-11-22T04:45:02.425Z,97179.94
2022-11-22T04:52:29.439Z,97182.00
2022-11-22T04:55:08.862Z,97178.59
2022-11-22T04:58:31.453Z,97179.60
2022-11-22T05:01:22.789Z,97175.84
2022-11-22T05:04:36.612Z,97170.35
2022-11-22T05:07:09.431Z,97176.27
2022-11-22T05:09:42.024Z,97177.69
2022-11-22T05:12:14.385Z,97174.48
2022-11-22T05:14:48.207Z,97171.20
2022-11-22T05:18:24.707Z,97175.60
2022-11-22T05:21:00.805Z,97176.42
2022-11-22T05:23:57.208Z,97180.72
2022-11-22T05:30:31.158Z,97182.11
2022-11-22T05:33:03.572Z,97180.86
2022-11-22T05:41:09.253Z,97182.49
2022-11-22T05:43:42.392Z,97180.75
2022-11-22T05:47:17.664Z,97179.63
2022-11-22T05:54:31.235Z,97174.20
2022-11-22T05:57:19.693Z,97173.86
2022-11-22T06:05:44.023Z,97180.27
2022-11-22T06:08:16.364Z,97180.36
2022-11-22T06:11:42.624Z,97184.73
2022-11-22T06:18:24.410Z,97199.92
2022-11-22T06:25:12.788Z,97197.08
2022-11-22T06:28:36.491Z,97192.52
2022-11-22T06:31:15.337Z,97192.98
2022-11-22T06:33:56.238Z,97197.73
2022-11-22T06:42:08.621Z,97205.23
2022-11-22T06:44:47.741Z,97204.81
2022-11-22T06:47:20.261Z,97205.67
2022-11-22T06:49:52.712Z,97207.23
2022-11-22T06:56:46.585Z,97211.84
2022-11-22T06:59:18.924Z,97211.98
2022-11-22T07:06:22.807Z,97242.69
2022-11-22T07:09:02.660Z,97244.63
2022-11-22T07:11:36.471Z,97242.29
2022-11-22T07:14:14.796Z,97242.83
2022-11-22T07:16:47.105Z,97243.58
2022-11-22T07:19:25.865Z,97242.98
2022-11-22T07:21:59.080Z,97241.98
2022-11-22T07:25:18.519Z,97235.80
2022-11-22T07:27:52.868Z,97236.05
2022-11-22T07:30:48.958Z,97238.44
2022-11-22T07:38:15.069Z,97225.12
2022-11-22T07:45:20.328Z,97228.73
2022-11-22T07:47:52.846Z,97233.42
2022-11-22T07:50:32.330Z,97229.70
2022-11-22T07:53:04.716Z,97225.84
2022-11-22T07:56:05.337Z,97225.57
2022-11-22T08:06:53.958Z,97234.65
2022-11-22T08:09:28.331Z,97237.09
2022-11-22T08:12:59.801Z,97240.09
2022-11-22T08:15:45.655Z,97241.50
2022-11-22T08:18:18.717Z,97238.83
2022-11-22T08:25:24.359Z,97234.05
2022-11-22T08:27:57.610Z,97226.29
2022-11-22T08:35:01.972Z,97210.83
2022-11-22T08:37:36.261Z,97207.13
2022-11-22T08:41:11.690Z,97206.67
2022-11-22T08:43:55.183Z,97200.74
2022-11-22T08:46:27.509Z,97194.05
2022-11-22T08:49:32.375Z,97194.85
2022-11-22T08:56:45.433Z,97174.99
2022-11-22T09:00:33.210Z,97166.56
2022-11-22T09:03:05.879Z,97158.19
2022-11-22T09:09:43.543Z,97132.58
2022-11-22T09:13:02.474Z,97129.71
2022-11-22T09:15:35.528Z,97117.92
2022-11-22T09:18:07.973Z,97108.77
2022-11-22T09:20:40.614Z,97102.55
2022-11-22T09:23:18.980Z,97092.55
2022-11-22T09:26:57.092Z,97081.90
2022-11-22T09:29:36.429Z,97057.29
2022-11-22T09:36:34.468Z,97053.86
2022-11-22T10:04:06.516Z,96904.38
2022-11-22T10:19:35.042Z,96821.52
2022-11-22T10:22:40.525Z,96809.48
2022-11-22T10:34:38.135Z,96767.12
2022-11-22T10:37:26.038Z,96778.34
2022-11-22T10:44:36.286Z,96772.88
2022-11-22T10:56:17.029Z,96771.23
2022-11-22T11:09:36.381Z,96786.95
2022-11-22T11:11:41.236Z,96774.86
2022-11-22T11:16:01.608Z,96764.03
2022-11-22T11:19:22.545Z,96745.26
2022-11-22T11:35:43.945Z,96783.08
2022-11-22T11:38:37.325Z,96790.52
2022-11-22T11:41:25.327Z,96792.95
2022-11-22T11:43:58.656Z,96799.80
2022-11-22T11:46:44.992Z,96808.38
2022-11-22T11:49:19.170Z,96816.52
2022-11-22T11:51:55.424Z,96818.34
2022-11-22T11:54:35.502Z,96824.16
2022-11-22T11:57:12.100Z,96828.80
2022-11-22T11:59:49.568Z,96834.02
2022-11-22T12:02:24.474Z,96836.95
2022-11-22T12:05:00.660Z,96838.72
2022-11-22T12:07:43.822Z,96845.51
2022-11-22T12:10:37.243Z,96853.01
2022-11-22T12:13:16.782Z,96856.51
2022-11-22T12:15:58.008Z,96855.45
2022-11-22T12:18:42.831Z,96852.52
2022-11-22T12:21:29.971Z,96849.52
2022-11-22T12:27:01.642Z,96862.43
2022-11-22T12:29:38.534Z,96862.84
2022-11-22T12:32:18.277Z,96864.54
2022-11-22T12:34:56.741Z,96863.13
2022-11-22T12:37:35.642Z,96860.17
2022-11-22T12:40:15.838Z,96859.77
2022-11-22T12:42:52.497Z,96856.59
2022-11-22T12:45:29.955Z,96852.44
2022-11-22T12:48:06.712Z,96850.52
2022-11-22T12:48:23.137Z,96863.63
2022-11-22T12:50:43.045Z,96845.85
2022-11-22T12:53:17.624Z,96847.33
2022-11-22T12:55:59.054Z,96849.55
2022-11-22T12:58:39.152Z,96852.31
2022-11-22T13:01:15.262Z,96863.92
2022-11-22T13:03:54.959Z,96874.14
2022-11-22T13:06:31.237Z,96881.06
2022-11-22T13:09:09.301Z,96885.27
2022-11-22T13:11:46.562Z,96888.82
2022-11-22T13:14:23.266Z,96895.37
2022-11-22T13:16:57.367Z,96902.71
2022-11-22T13:19:32.412Z,96908.92
2022-11-22T13:22:16.648Z,96912.46
2022-11-22T13:25:04.477Z,96914.83
2022-11-22T13:27:42.102Z,96923.45
2022-11-22T13:30:21.725Z,96927.92
2022-11-22T13:32:55.979Z,96930.86
2022-11-22T13:35:33.717Z,96937.14
2022-11-22T13:38:13.697Z,96938.97
2022-11-22T13:40:50.612Z,96938.10
2022-11-22T13:43:53.425Z,96940.91
2022-11-22T13:46:54.419Z,96951.39
2022-11-22T13:49:38.929Z,96964.91
2022-11-22T13:52:47.159Z,96970.86
2022-11-22T13:55:42.437Z,96981.60
2022-11-22T13:58:50.789Z,96982.52
2022-11-22T14:02:19.578Z,96996.33
2022-11-22T14:04:56.385Z,97003.45
2022-11-22T14:07:43.580Z,97012.36
2022-11-22T14:10:32.657Z,97019.05
2022-11-22T14:13:32.811Z,97020.86
2022-11-22T14:16:36.052Z,97022.65
2022-11-22T14:19:21.544Z,97031.60
2022-11-22T14:22:18.723Z,97034.81
2022-11-22T14:25:04.632Z,97035.23
2022-11-22T14:27:50.199Z,97045.55
2022-11-22T14:30:23.420Z,97055.59
2022-11-22T14:33:02.810Z,97057.94
2022-11-22T14:35:39.258Z,97064.65
2022-11-22T14:38:40.872Z,97075.33
2022-11-22T14:41:44.031Z,97080.77
2022-11-22T14:44:20.337Z,97094.58
2022-11-22T14:46:57.522Z,97101.64
2022-11-22T14:49:43.570Z,97111.79
2022-11-22T14:52:23.488Z,97109.15
2022-11-22T14:54:59.955Z,97117.58
2022-11-22T14:57:35.564Z,97123.38
2022-11-22T15:00:19.027Z,97132.38
2022-11-22T15:03:23.827Z,97145.16
2022-11-22T15:09:18.208Z,97160.45
2022-11-22T15:09:46.860Z,97161.05
2022-11-22T15:12:36.768Z,97166.77
2022-11-22T15:57:36.763Z,97227.33
2022-11-22T16:00:22.582Z,97226.09
2022-11-22T16:03:01.634Z,97223.03
2022-11-22T16:06:05.900Z,97229.91
2022-11-22T16:08:32.590Z,97224.83
2022-11-22T16:11:05.892Z,97221.58
2022-11-22T16:13:40.048Z,97224.41
2022-11-22T16:16:27.123Z,97227.67
2022-11-22T16:19:23.788Z,97225.27
2022-11-22T16:22:00.545Z,97222.87
2022-11-22T16:24:33.429Z,97219.36
2022-11-22T16:27:15.937Z,97219.79
2022-11-22T16:29:54.764Z,97214.80
2022-11-22T16:32:29.657Z,97211.67
2022-11-22T16:35:27.495Z,97208.34
2022-11-22T16:37:53.811Z,97207.53
2022-11-22T16:40:26.072Z,97203.88
2022-11-22T16:42:58.310Z,97209.54
2022-11-22T16:45:31.455Z,97202.90
2022-11-22T16:48:39.031Z,97202.95
2022-11-22T16:55:31.475Z,97210.24
2022-11-22T16:59:00.583Z,97208.88
2022-11-22T17:14:33.564Z,97219.45
2022-11-22T17:21:01.550Z,97230.56
2022-11-22T17:23:36.684Z,97229.52
2022-11-22T17:31:40.785Z,97233.08
2022-11-22T17:34:13.094Z,97229.69
2022-11-22T17:36:53.222Z,97231.11
2022-11-22T17:39:25.443Z,97224.77
2022-11-22T17:42:06.940Z,97222.29
2022-11-22T17:44:39.672Z,97223.14
2022-11-22T17:47:18.323Z,97223.78
2022-11-22T17:49:50.597Z,97224.09
2022-11-22T17:52:29.591Z,97227.79
2022-11-22T17:55:06.217Z,97230.13
2022-11-22T17:58:35.741Z,97228.34
2022-11-22T18:01:10.265Z,97229.17
2022-11-22T18:04:31.624Z,97227.61
2022-11-22T18:07:04.546Z,97228.30
2022-11-22T18:09:43.305Z,97227.76
2022-11-22T18:17:07.394Z,97238.36
2022-11-22T18:19:46.353Z,97235.06
2022-11-22T18:22:20.178Z,97236.25
2022-11-22T18:24:59.536Z,97237.25
2022-11-22T18:27:31.719Z,97243.38
2022-11-22T18:30:13.382Z,97238.70
2022-11-22T18:51:23.701Z,97235.42
2022-11-22T19:01:37.579Z,97223.23
2022-11-22T19:04:10.832Z,97223.81
2022-11-22T19:06:52.683Z,97222.44
2022-11-22T19:09:29.026Z,97220.41
2022-11-22T19:13:51.221Z,97220.61
2022-11-22T19:21:38.220Z,97221.05
2022-11-22T19:24:10.984Z,97221.11
2022-11-22T19:26:49.414Z,97224.58
2022-11-22T19:29:22.257Z,97227.28
2022-11-22T19:32:01.666Z,97231.14
2022-11-22T19:34:34.130Z,97233.46
2022-11-22T19:37:12.914Z,97233.64
2022-11-22T19:39:45.221Z,97236.73
2022-11-22T19:46:11.605Z,97231.15
2022-11-22T19:48:53.444Z,97234.94
2022-11-22T19:52:15.533Z,97239.75
2022-11-22T20:02:25.821Z,97251.55
2022-11-22T20:04:58.628Z,97252.05
2022-11-22T20:07:38.310Z,97249.82
2022-11-22T20:10:11.509Z,97251.60
2022-11-22T20:12:51.659Z,97255.55
2022-11-22T20:20:16.015Z,97261.92
2022-11-22T20:23:57.186Z,97261.36
2022-11-22T20:26:36.267Z,97259.20
2022-11-22T20:33:06.477Z,97265.00
2022-11-22T20:35:39.811Z,97259.56
2022-11-22T20:38:13.389Z,97261.37
2022-11-22T20:45:08.693Z,97258.58
2022-11-22T20:51:52.723Z,97265.35
2022-11-22T20:54:24.984Z,97264.39
2022-11-22T20:56:58.147Z,97267.43
2022-11-22T20:59:30.420Z,97268.38
2022-11-22T21:06:06.218Z,97276.27
2022-11-22T21:08:38.438Z,97276.58
2022-11-22T21:11:18.189Z,97271.67
2022-11-22T21:13:51.263Z,97269.98
2022-11-22T21:16:30.943Z,97268.24
2022-11-22T21:19:05.214Z,97269.09
2022-11-22T21:22:31.545Z,97267.48
2022-11-22T21:25:53.442Z,97266.26
2022-11-22T21:32:35.364Z,97264.03
2022-11-22T21:39:37.221Z,97277.55
2022-11-22T21:42:09.512Z,97284.32
2022-11-22T21:44:48.081Z,97283.96
2022-11-22T21:52:15.281Z,97284.23
2022-11-22T21:54:47.692Z,97286.05
2022-11-22T22:06:12.369Z,97288.52
2022-11-22T22:09:43.977Z,97290.59
2022-11-22T22:12:23.364Z,97288.15
2022-11-22T22:15:12.400Z,97288.33
2022-11-22T22:18:35.504Z,97283.67
2022-11-22T22:21:58.502Z,97282.29
2022-11-22T22:29:03.844Z,97296.98
2022-11-22T22:36:26.898Z,97305.34
2022-11-22T22:44:19.150Z,97309.52
2022-11-22T22:47:00.677Z,97309.61
2022-11-22T22:50:51.290Z,97302.29
2022-11-22T22:53:31.124Z,97297.68
2022-11-22T23:05:43.821Z,97310.95
2022-11-22T23:08:22.865Z,97311.55
2022-11-22T23:15:33.183Z,97308.67
2022-11-22T23:22:28.087Z,97310.18
2022-11-22T23:25:00.279Z,97307.03
2022-11-22T23:31:42.059Z,97298.51
2022-11-22T23:34:15.276Z,97292.30
2022-11-22T23:36:54.064Z,97294.23
2022-11-22T23:39:27.575Z,97285.36
2022-11-22T23:42:00.317Z,97284.83
2022-11-22T23:44:59.890Z,97282.52
2022-11-22T23:52:38.436Z,97274.52
2022-11-22T23:55:25.585Z,97273.58
2022-11-22T23:57:59.539Z,97274.67
